createdAt,value
2022-12-16T00:01:28.379Z,5.34
2022-12-16T00:04:03.279Z,5.10
2022-12-16T00:06:34.500Z,4.85
2022-12-16T00:09:05.697Z,4.83
2022-12-16T00:11:46.237Z,4.62
2022-12-16T00:14:15.084Z,4.55
2022-12-16T00:16:43.776Z,4.45
2022-12-16T00:19:12.624Z,4.35
2022-12-16T00:21:41.497Z,4.21
2022-12-16T00:24:10.173Z,4.11
2022-12-16T00:26:39.006Z,3.99
2022-12-16T00:29:11.897Z,3.87
2022-12-16T00:31:43.801Z,3.76
2022-12-16T00:34:12.484Z,3.63
2022-12-16T00:36:44.310Z,3.51
2022-12-16T00:39:18.265Z,3.35
2022-12-16T00:41:48.385Z,3.19
2022-12-16T00:44:17.260Z,3.07
2022-12-16T00:46:46.321Z,2.99
2022-12-16T00:49:25.479Z,2.91
2022-12-16T00:51:59.674Z,2.85
2022-12-16T00:54:29.742Z,2.75
2022-12-16T00:56:58.539Z,2.65
2022-12-16T00:59:30.187Z,2.57
2022-12-16T01:01:59.164Z,2.48
2022-12-16T01:04:28.054Z,2.43
2022-12-16T01:06:59.964Z,2.37
2022-12-16T01:09:37.607Z,2.35
2022-12-16T01:12:15.398Z,2.34
2022-12-16T01:14:47.523Z,2.30
2022-12-16T01:17:18.685Z,2.21
2022-12-16T01:19:49.343Z,2.14
2022-12-16T01:22:29.085Z,2.12
2022-12-16T01:24:58.199Z,2.09
2022-12-16T01:27:27.744Z,2.08
2022-12-16T01:30:02.357Z,2.05
2022-12-16T01:32:31.256Z,2.00
2022-12-16T01:35:29.521Z,1.94
2022-12-16T01:37:58.977Z,1.91
2022-12-16T01:40:30.011Z,1.84
2022-12-16T01:42:58.753Z,1.79
2022-12-16T01:45:37.268Z,1.76
2022-12-16T01:48:26.958Z,1.66
2022-12-16T01:51:03.135Z,1.66
2022-12-16T01:53:33.125Z,1.64
2022-12-16T01:56:05.493Z,1.61
2022-12-16T01:58:38.437Z,1.56
2022-12-16T02:01:11.141Z,1.52
2022-12-16T02:03:43.446Z,1.48
2022-12-16T02:06:15.527Z,1.46
2022-12-16T02:08:44.423Z,1.47
2022-12-16T02:11:57.209Z,1.44
2022-12-16T02:15:02.747Z,1.37
2022-12-16T02:17:48.901Z,1.29
2022-12-16T02:20:38.977Z,1.22
2022-12-16T02:23:22.314Z,1.18
2022-12-16T02:26:33.533Z,1.15
2022-12-16T02:29:07.882Z,1.12
2022-12-16T02:31:43.881Z,1.09
2022-12-16T02:34:33.919Z,1.04
2022-12-16T02:37:31.748Z,1.06
2022-12-16T02:40:02.152Z,1.04
2022-12-16T02:42:46.846Z,1.08
2022-12-16T02:45:22.851Z,1.07
2022-12-16T02:47:52.283Z,1.04
2022-12-16T02:50:40.589Z,0.98
2022-12-16T02:53:10.724Z,0.95
2022-12-16T02:55:51.827Z,0.94
2022-12-16T02:58:36.430Z,0.92
2022-12-16T03:01:17.755Z,0.92
2022-12-16T03:03:55.784Z,0.91
2022-12-16T03:06:26.185Z,0.90
2022-12-16T03:09:03.356Z,0.88
2022-12-16T03:11:38.259Z,0.87
2022-12-16T03:14:12.341Z,0.85
2022-12-16T03:16:42.709Z,0.81
2022-12-16T03:19:13.137Z,0.80
2022-12-16T03:21:56.768Z,0.74
2022-12-16T03:24:35.443Z,0.69
2022-12-16T03:27:19.612Z,0.65
2022-12-16T03:30:01.416Z,0.62
2022-12-16T03:32:49.852Z,0.61
2022-12-16T03:35:44.798Z,0.60
2022-12-16T03:38:17.247Z,0.60
2022-12-16T03:40:46.508Z,0.59
2022-12-16T03:43:19.007Z,0.57
2022-12-16T03:46:07.450Z,0.54
2022-12-16T03:48:39.402Z,0.55
2022-12-16T03:51:08.630Z,0.54
2022-12-16T03:53:37.336Z,0.54
2022-12-16T03:56:06.113Z,0.55
2022-12-16T03:58:40.924Z,0.60
2022-12-16T04:01:15.061Z,0.56
2022-12-16T04:03:44.041Z,0.53
2022-12-16T04:06:13.251Z,0.54
2022-12-16T04:08:41.970Z,0.62
2022-12-16T04:11:32.199Z,0.59
2022-12-16T04:14:22.355Z,0.60
2022-12-16T04:17:11.076Z,0.54
2022-12-16T04:20:00.744Z,0.59
2022-12-16T04:22:58.352Z,0.56
2022-12-16T04:25:39.068Z,0.52
2022-12-16T04:28:10.038Z,0.34
2022-12-16T04:30:39.024Z,0.29
2022-12-16T04:33:36.784Z,0.26
2022-12-16T04:36:27.506Z,0.33
2022-12-16T04:39:14.690Z,0.27
2022-12-16T04:42:03.116Z,0.19
2022-12-16T04:44:50.898Z,0.20
2022-12-16T04:47:37.653Z,0.17
2022-12-16T04:50:28.255Z,-0.01
2022-12-16T04:53:15.468Z,0.10
2022-12-16T04:56:04.617Z,0.13
2022-12-16T04:58:57.615Z,0.20
2022-12-16T05:02:01.359Z,0.16
2022-12-16T05:04:50.135Z,-0.22
2022-12-16T05:07:38.765Z,-0.57
2022-12-16T05:10:28.265Z,-0.40
2022-12-16T05:13:17.319Z,-0.50
2022-12-16T05:16:04.384Z,-0.45
2022-12-16T05:18:56.919Z,-0.39
2022-12-16T05:21:47.018Z,-0.09
2022-12-16T05:24:38.933Z,0.03
2022-12-16T05:27:27.832Z,-0.45
2022-12-16T05:30:18.002Z,-0.04
2022-12-16T05:33:10.971Z,-0.17
2022-12-16T05:35:58.010Z,-0.15
2022-12-16T05:38:48.071Z,-0.04
2022-12-16T05:41:35.087Z,0.10
2022-12-16T05:44:23.278Z,0.01
2022-12-16T05:47:10.536Z,0.05
2022-12-16T05:49:57.565Z,0.02
2022-12-16T05:52:44.275Z,-0.14
2022-12-16T05:55:34.202Z,-0.07
2022-12-16T05:58:23.034Z,-0.09
2022-12-16T06:01:10.753Z,0.05
2022-12-16T06:04:03.340Z,-0.06
2022-12-16T06:06:50.668Z,-0.25
2022-12-16T06:09:37.336Z,-0.21
2022-12-16T06:12:27.853Z,-0.30
2022-12-16T06:15:16.084Z,-0.57
2022-12-16T06:18:07.884Z,-1.18
2022-12-16T06:20:55.999Z,-1.24
2022-12-16T06:23:43.028Z,-1.47
2022-12-16T06:26:30.809Z,-1.60
2022-12-16T06:29:17.898Z,-1.32
2022-12-16T06:32:24.336Z,-1.17
2022-12-16T06:35:15.528Z,-1.57
2022-12-16T06:38:06.247Z,-1.23
2022-12-16T06:41:00.671Z,-1.06
2022-12-16T06:43:49.391Z,-0.84
2022-12-16T06:46:39.093Z,-0.60
2022-12-16T06:49:27.430Z,-0.60
2022-12-16T06:52:14.470Z,-0.45
2022-12-16T06:55:07.450Z,-0.42
2022-12-16T06:57:57.523Z,-0.38
2022-12-16T07:00:47.676Z,-0.38
2022-12-16T07:03:38.262Z,-0.27
2022-12-16T07:06:25.472Z,-0.23
2022-12-16T07:09:12.786Z,-0.30
2022-12-16T07:11:59.773Z,-0.36
2022-12-16T07:14:54.124Z,-0.31
2022-12-16T07:17:41.271Z,-0.23
2022-12-16T07:20:32.223Z,-0.40
2022-12-16T07:23:19.980Z,-0.46
2022-12-16T07:26:07.457Z,-0.26
2022-12-16T07:28:54.780Z,-0.23
2022-12-16T07:31:41.364Z,-0.28
2022-12-16T07:34:35.705Z,-0.25
2022-12-16T07:37:26.247Z,-0.28
2022-12-16T07:40:13.348Z,-0.24
2022-12-16T07:43:08.120Z,-0.23
2022-12-16T07:45:58.048Z,-0.23
2022-12-16T07:48:54.104Z,-0.31
2022-12-16T07:51:48.326Z,-0.24
2022-12-16T07:54:35.169Z,-0.30
2022-12-16T07:57:22.374Z,-0.36
2022-12-16T08:00:10.202Z,-0.47
2022-12-16T08:03:00.616Z,-0.72
2022-12-16T08:05:47.808Z,-0.52
2022-12-16T08:08:34.882Z,-0.91
2022-12-16T08:11:25.273Z,-0.54
2022-12-16T08:23:35.694Z,-0.59
2022-12-16T08:26:23.260Z,-0.89
2022-12-16T08:29:35.071Z,-0.86
2022-12-16T08:32:17.346Z,-0.76
2022-12-16T08:35:07.655Z,-1.11
2022-12-16T08:37:55.618Z,-1.01
2022-12-16T08:40:42.703Z,-0.87
2022-12-16T08:43:29.913Z,-0.83
2022-12-16T08:46:17.168Z,-0.94
2022-12-16T08:49:07.542Z,-1.05
2022-12-16T08:51:54.611Z,-0.93
2022-12-16T08:54:42.591Z,-1.00
2022-12-16T08:57:29.812Z,-0.88
2022-12-16T09:00:17.030Z,-0.73
2022-12-16T09:03:04.005Z,-0.80
2022-12-16T09:05:51.366Z,-0.76
2022-12-16T09:08:38.529Z,-1.00
2022-12-16T09:11:25.138Z,-0.98
2022-12-16T09:14:14.743Z,-0.93
2022-12-16T09:17:01.841Z,-0.67
2022-12-16T09:19:51.860Z,-0.58
2022-12-16T09:22:41.059Z,-0.68
2022-12-16T09:25:28.148Z,-0.68
2022-12-16T09:28:17.682Z,-0.45
2022-12-16T09:31:07.456Z,-0.51
2022-12-16T09:33:55.853Z,-0.53
2022-12-16T09:36:46.416Z,-0.62
2022-12-16T09:39:33.532Z,-0.79
2022-12-16T09:42:57.287Z,-0.71
2022-12-16T09:45:53.149Z,-0.45
2022-12-16T09:48:56.106Z,-0.55
2022-12-16T09:51:44.603Z,-0.73
2022-12-16T09:54:38.781Z,-0.65
2022-12-16T09:57:27.094Z,-0.62
2022-12-16T10:00:19.735Z,-0.67
2022-12-16T10:03:10.703Z,-0.64
2022-12-16T10:06:10.575Z,-0.60
2022-12-16T10:09:13.004Z,-0.62
2022-12-16T10:12:24.932Z,-0.62
2022-12-16T10:15:33.979Z,-0.65
2022-12-16T10:18:32.292Z,-0.62
2022-12-16T10:21:19.811Z,-0.78
2022-12-16T10:24:30.648Z,-0.71
2022-12-16T10:27:41.443Z,-0.68
2022-12-16T10:30:33.569Z,-0.70
2022-12-16T10:33:21.664Z,-0.66
2022-12-16T10:36:12.486Z,-0.70
2022-12-16T10:39:14.879Z,-0.85
2022-12-16T10:42:06.617Z,-0.66
2022-12-16T10:45:14.570Z,-0.72
2022-12-16T10:48:04.172Z,-0.74
2022-12-16T10:50:56.811Z,-0.97
2022-12-16T10:53:51.336Z,-0.89
2022-12-16T10:57:22.590Z,-1.20
2022-12-16T11:00:35.257Z,-0.89
2022-12-16T11:03:42.709Z,-0.84
2022-12-16T11:06:32.374Z,-0.79
2022-12-16T11:09:49.399Z,-0.80
2022-12-16T11:12:49.332Z,-0.83
2022-12-16T11:15:51.124Z,-1.02
2022-12-16T11:18:43.702Z,-0.85
2022-12-16T11:21:40.028Z,-0.77
2022-12-16T11:24:40.815Z,-0.75
2022-12-16T11:27:35.562Z,-0.74
2022-12-16T11:30:41.262Z,-0.74
2022-12-16T11:33:47.258Z,-0.84
2022-12-16T11:36:39.793Z,-0.80
2022-12-16T11:39:33.912Z,-0.73
2022-12-16T11:42:22.009Z,-0.84
2022-12-16T11:45:32.050Z,-0.79
2022-12-16T11:48:35.889Z,-0.68
2022-12-16T11:51:27.901Z,-0.77
2022-12-16T11:54:42.863Z,-0.71
2022-12-16T11:58:10.387Z,-0.77
2022-12-16T12:01:08.272Z,-0.81
2022-12-16T12:04:04.938Z,-0.99
2022-12-16T12:07:22.835Z,-0.82
2022-12-16T12:10:20.378Z,-0.75
2022-12-16T12:13:22.520Z,-0.93
2022-12-16T12:16:29.111Z,-1.10
2022-12-16T12:19:43.672Z,-1.11
2022-12-16T12:22:46.228Z,-1.47
2022-12-16T12:25:52.987Z,-1.29
2022-12-16T12:28:51.902Z,-1.30
2022-12-16T12:31:51.050Z,-1.09
2022-12-16T12:34:40.883Z,-1.08
2022-12-16T12:38:05.731Z,-0.82
2022-12-16T12:41:22.730Z,-1.25
2022-12-16T12:44:15.508Z,-1.16
2022-12-16T12:47:29.689Z,-1.37
2022-12-16T12:50:21.826Z,-1.40
2022-12-16T12:53:49.961Z,-1.30
2022-12-16T12:56:55.230Z,-1.10
2022-12-16T12:59:50.260Z,-1.10
2022-12-16T13:02:43.974Z,-0.97
2022-12-16T13:05:36.417Z,-1.16
2022-12-16T13:08:57.406Z,-1.23
2022-12-16T13:11:44.404Z,-1.10
2022-12-16T13:15:22.260Z,-1.19
2022-12-16T13:18:18.753Z,-1.12
2022-12-16T13:21:16.185Z,-1.03
2022-12-16T13:24:10.532Z,-1.18
2022-12-16T13:27:20.984Z,-1.13
2022-12-16T13:30:25.004Z,-0.81
2022-12-16T13:33:18.827Z,-0.67
2022-12-16T13:36:16.084Z,-0.65
2022-12-16T13:39:08.506Z,-0.71
2022-12-16T13:41:58.563Z,-0.94
2022-12-16T13:45:03.922Z,-0.82
2022-12-16T13:48:01.072Z,-0.77
2022-12-16T13:51:04.037Z,-0.83
2022-12-16T13:54:04.019Z,-0.75
2022-12-16T13:57:00.111Z,-0.82
2022-12-16T13:59:52.019Z,-0.84
2022-12-16T14:02:59.491Z,-0.84
2022-12-16T14:05:48.533Z,-0.83
2022-12-16T14:08:39.167Z,-0.77
2022-12-16T14:11:40.947Z,-0.79
2022-12-16T14:14:42.870Z,-0.86
2022-12-16T14:18:01.056Z,-0.83
2022-12-16T14:20:55.767Z,-0.87
2022-12-16T14:24:00.329Z,-0.88
2022-12-16T14:26:50.579Z,-0.87
2022-12-16T14:30:01.978Z,-0.75
2022-12-16T14:32:56.038Z,-0.77
2022-12-16T14:35:46.696Z,-0.87
2022-12-16T14:38:46.091Z,-0.98
2022-12-16T14:41:44.294Z,-1.14
2022-12-16T14:44:42.116Z,-0.91
2022-12-16T14:47:41.037Z,-0.91
2022-12-16T14:50:43.023Z,-0.90
2022-12-16T14:53:39.866Z,-0.92
2022-12-16T14:56:34.381Z,-1.04
2022-12-16T14:59:39.272Z,-0.99
2022-12-16T15:02:53.110Z,-1.24
2022-12-16T15:05:52.431Z,-1.01
2022-12-16T15:08:43.990Z,-0.89
2022-12-16T15:11:34.843Z,-1.32
2022-12-16T15:14:23.107Z,-1.11
2022-12-16T15:17:12.709Z,-0.86
2022-12-16T15:20:12.198Z,-1.05
2022-12-16T15:23:08.762Z,-1.07
2022-12-16T15:26:08.276Z,-0.94
2022-12-16T15:28:55.429Z,-1.23
2022-12-16T15:32:02.946Z,-1.19
2022-12-16T15:35:05.900Z,-0.99
2022-12-16T15:38:04.493Z,-1.05
2022-12-16T15:41:00.079Z,-1.21
2022-12-16T15:44:05.361Z,-0.87
2022-12-16T15:46:54.872Z,-0.73
2022-12-16T15:49:51.136Z,-0.70
2022-12-16T15:52:55.635Z,-0.83
2022-12-16T15:56:04.186Z,-1.30
2022-12-16T15:58:56.265Z,-1.22
2022-12-16T16:01:47.534Z,-0.93
2022-12-16T16:04:43.836Z,-0.99
2022-12-16T16:07:44.265Z,-1.12
2022-12-16T16:10:41.241Z,-1.22
2022-12-16T16:13:31.007Z,-1.60
2022-12-16T16:16:23.609Z,-1.18
2022-12-16T16:19:31.017Z,-1.37
2022-12-16T16:22:23.145Z,-1.00
2022-12-16T16:25:10.277Z,-1.22
2022-12-16T16:27:58.012Z,-1.66
2022-12-16T16:30:45.422Z,-1.61
2022-12-16T16:33:33.698Z,-1.26
2022-12-16T16:36:20.666Z,-1.17
2022-12-16T16:39:08.893Z,-1.37
2022-12-16T16:41:59.176Z,-1.35
2022-12-16T16:44:46.336Z,-1.22
2022-12-16T16:47:41.184Z,-1.09
2022-12-16T16:50:36.314Z,-1.02
2022-12-16T16:53:23.302Z,-1.05
2022-12-16T16:56:19.653Z,-1.20
2022-12-16T16:59:07.386Z,-1.01
2022-12-16T17:01:54.754Z,-0.79
2022-12-16T17:04:44.142Z,-0.66
2022-12-16T17:07:31.516Z,-0.52
2022-12-16T17:10:18.026Z,-0.51
2022-12-16T17:13:07.952Z,-0.66
2022-12-16T17:15:58.336Z,-0.82
2022-12-16T17:18:52.563Z,-0.92
2022-12-16T17:21:42.471Z,-0.60
2022-12-16T17:24:29.220Z,-0.77
2022-12-16T17:27:16.505Z,-0.61
2022-12-16T17:30:03.561Z,-0.59
2022-12-16T17:32:53.084Z,-0.50
2022-12-16T17:35:42.863Z,-0.37
2022-12-16T17:38:37.002Z,-0.37
2022-12-16T17:41:24.160Z,-0.25
2022-12-16T17:44:21.404Z,0.00
2022-12-16T17:47:08.746Z,-0.04
2022-12-16T17:49:56.270Z,-0.07
2022-12-16T17:52:44.803Z,-0.09
2022-12-16T17:55:34.791Z,-0.23
2022-12-16T17:58:22.199Z,-0.22
2022-12-16T18:01:11.287Z,-0.16
2022-12-16T18:03:58.951Z,0.13
2022-12-16T18:06:45.520Z,0.22
2022-12-16T18:09:35.139Z,0.28
2022-12-16T18:12:22.878Z,0.26
2022-12-16T18:15:10.116Z,0.37
2022-12-16T18:17:58.827Z,0.43
2022-12-16T18:20:46.109Z,0.43
2022-12-16T18:23:37.617Z,0.48
2022-12-16T18:26:27.067Z,0.55
2022-12-16T18:29:15.300Z,0.60
2022-12-16T18:32:08.040Z,0.79
2022-12-16T18:34:55.094Z,0.71
2022-12-16T18:37:45.331Z,0.95
2022-12-16T18:40:37.558Z,1.08
2022-12-16T18:43:24.755Z,1.14
2022-12-16T18:46:13.508Z,1.23
2022-12-16T18:49:09.504Z,1.27
2022-12-16T18:51:56.658Z,1.42
2022-12-16T18:54:46.724Z,1.64
2022-12-16T18:57:40.155Z,1.77
2022-12-16T19:00:27.809Z,1.93
2022-12-16T19:03:14.634Z,2.12
2022-12-16T19:06:02.124Z,1.96
2022-12-16T19:08:52.174Z,2.15
2022-12-16T19:11:39.119Z,2.27
2022-12-16T19:14:26.204Z,2.30
2022-12-16T19:17:14.932Z,2.04
2022-12-16T19:20:02.889Z,2.47
2022-12-16T19:22:49.909Z,2.42
2022-12-16T19:25:37.150Z,2.61
2022-12-16T19:28:23.827Z,2.78
2022-12-16T19:31:19.855Z,2.92
2022-12-16T19:34:13.947Z,3.03
2022-12-16T19:37:01.100Z,3.33
2022-12-16T19:39:52.997Z,3.27
2022-12-16T19:42:43.496Z,3.19
2022-12-16T19:45:30.627Z,3.28
2022-12-16T19:48:35.684Z,3.35
2022-12-16T19:51:23.414Z,2.74
2022-12-16T19:54:12.955Z,2.98
2022-12-16T19:57:02.085Z,3.31
2022-12-16T19:59:49.192Z,2.96
2022-12-16T20:02:39.532Z,3.13
2022-12-16T20:05:29.189Z,3.29
2022-12-16T20:08:23.295Z,2.92
2022-12-16T20:11:15.211Z,2.79
2022-12-16T20:14:02.477Z,3.16
2022-12-16T20:16:49.133Z,3.17
2022-12-16T20:19:45.618Z,3.16
2022-12-16T20:22:34.130Z,3.15
2022-12-16T20:25:23.631Z,3.38
2022-12-16T20:28:10.518Z,4.16
2022-12-16T20:31:00.449Z,4.34
2022-12-16T20:33:49.343Z,4.71
2022-12-16T20:36:42.185Z,4.94
2022-12-16T20:39:29.451Z,5.07
2022-12-16T20:42:16.595Z,5.68
2022-12-16T20:45:06.337Z,6.55
2022-12-16T20:47:53.487Z,6.70
2022-12-16T20:50:44.727Z,6.23
2022-12-16T20:53:32.063Z,6.89
2022-12-16T20:56:22.306Z,7.20
2022-12-16T20:59:09.311Z,7.54
2022-12-16T21:02:22.272Z,8.39
2022-12-16T21:05:05.707Z,7.68
2022-12-16T21:07:53.555Z,8.25
2022-12-16T21:10:40.962Z,7.76
2022-12-16T21:13:33.610Z,7.83
2022-12-16T21:16:22.947Z,7.95
2022-12-16T21:19:13.074Z,8.26
2022-12-16T21:22:00.264Z,9.29
2022-12-16T21:24:50.364Z,9.91
2022-12-16T21:27:37.333Z,10.09
2022-12-16T21:30:27.241Z,9.93
2022-12-16T21:33:14.087Z,10.54
2022-12-16T21:36:00.940Z,9.42
2022-12-16T21:39:10.242Z,10.54
2022-12-16T21:41:57.516Z,11.17
2022-12-16T21:44:44.762Z,11.11
2022-12-16T21:47:31.816Z,9.65
2022-12-16T21:50:19.719Z,10.22
2022-12-16T21:53:07.313Z,9.95
2022-12-16T21:55:55.659Z,10.06
2022-12-16T21:58:43.926Z,10.44
2022-12-16T22:01:31.014Z,9.77
2022-12-16T22:04:21.021Z,9.97
2022-12-16T22:07:14.140Z,9.29
2022-12-16T22:10:04.422Z,8.97
2022-12-16T22:12:56.144Z,8.52
2022-12-16T22:15:47.782Z,8.27
2022-12-16T22:18:40.476Z,7.99
2022-12-16T22:21:29.018Z,7.02
2022-12-16T22:24:18.327Z,7.64
2022-12-16T22:27:06.772Z,7.58
2022-12-16T22:29:57.082Z,6.99
2022-12-16T22:32:44.237Z,6.97
2022-12-16T22:35:34.576Z,6.67
2022-12-16T22:38:21.774Z,7.02
2022-12-16T22:41:16.807Z,6.87
2022-12-16T22:44:04.386Z,7.14
2022-12-16T22:46:51.491Z,6.79
2022-12-16T22:49:41.558Z,6.78
2022-12-16T22:52:31.290Z,6.91
2022-12-16T22:55:21.288Z,7.42
2022-12-16T22:58:13.727Z,8.01
2022-12-16T23:01:18.040Z,8.51
2022-12-16T23:04:14.831Z,8.93
2022-12-16T23:07:03.765Z,8.97
2022-12-16T23:09:50.577Z,9.57
2022-12-16T23:12:38.147Z,10.09
2022-12-16T23:15:26.735Z,9.83
2022-12-16T23:18:13.886Z,9.71
2022-12-16T23:21:07.227Z,9.28
2022-12-16T23:23:56.997Z,9.47
2022-12-16T23:26:44.317Z,9.31
2022-12-16T23:29:31.842Z,9.20
2022-12-16T23:32:20.226Z,8.88
2022-12-16T23:35:07.432Z,8.43
2022-12-16T23:37:59.488Z,8.08
2022-12-16T23:40:48.216Z,7.86
2022-12-16T23:43:35.306Z,7.63
2022-12-16T23:46:29.081Z,7.54
2022-12-16T23:49:16.278Z,7.31
2022-12-16T23:52:15.888Z,7.06
2022-12-16T23:55:06.039Z,6.74
2022-12-16T23:57:56.094Z,6.45
